• Join FlightAware (Why Join?)
  • Login
  • US Flag 
04:15AM EDT


 

Airport Tracker/Info


-or-


 

Live Flight TrackerFlight Track Log ✈ SKW6492 ✈ 08-May-2013 ✈ KAUS - KDEN

Flight Track Log - Related Links

Times and Time Zones

All times are in EDT time to prevent confusion due to time zone crossing. See the SKW6492 flight status page for this flight to view local times or setup timezone preferences in your user account.

Time Position Orientation Groundspeed Altitude Reporting Facility
EDT Latitude Longitude Course Direction KTS MPH feet Rate Location/Type
04:19PM 30.4047 -97.6308 291° West  Level FlightAware Approximate
04:19PM 30.1906 -97.8108 291° West 288 331 5,500  Level Houston Center
04:20PM 30.4463 -97.7523 293° West  Level FlightAware Approximate
04:20PM 30.2581 -97.8872 316° Northwest 289 333 8,500  Level Houston Center
04:21PM 30.4902 -97.8728 293° West  Level FlightAware Approximate
04:21PM 30.2950 -97.9689 298° West 290 334 10,600  Level Houston Center
04:22PM 30.5316 -97.9946 291° West  Level FlightAware Approximate
04:22PM 30.3467 -98.0517 306° West 306 352 12,200  Level Houston Center
04:23PM 30.5723 -98.1167 291° West  Level FlightAware Approximate
04:23PM 30.4017 -98.1419 305° West 332 382 14,200  Level Houston Center
04:24PM 30.6130 -98.2389 291° West  Level FlightAware Approximate
04:24PM 30.4736 -98.2192 317° Northwest 354 407 16,500  Level Houston Center
04:25PM 30.5558 -98.2869 325° Northwest 355 409 18,300 1,740 Climbing Houston Center
04:26PM 30.6397 -98.3519 326° Northwest 357 411 20,200 1,620 Climbing Houston Center
04:27PM 30.7233 -98.4208 325° Northwest 362 417 21,700 1,620 Climbing Houston Center
04:28PM 30.8244 -98.4997 326° Northwest 368 423 23,600 1,500 Climbing Houston Center
04:29PM 30.9106 -98.5697 325° Northwest 371 427 24,900 1,200 Climbing Houston Center
04:30PM 30.9986 -98.6400 326° Northwest 377 434 26,100 1,140 Climbing Houston Center
04:31PM 31.0872 -98.7122 325° Northwest 381 438 27,300 1,020 Climbing Houston Center
04:32PM 31.1750 -98.7861 324° Northwest 385 443 28,300 900 Climbing Houston Center
04:33PM 31.2647 -98.8586 325° Northwest 387 445 29,200 960 Climbing Houston Center
04:34PM 31.3561 -98.9319 326° Northwest 392 451 30,300 900 Climbing Houston Center
04:35PM 31.4061 -98.9736 325° Northwest 387 445 30,600 600 Climbing Fort Worth Center
04:36PM 31.4950 -99.0481 324° Northwest 392 451 31,200 600 Climbing Fort Worth Center
04:37PM 31.5756 -99.1153 325° Northwest 392 451 31,900 840 Climbing Fort Worth Center
04:38PM 31.6664 -99.1878 326° Northwest 397 457 32,900 840 Climbing Fort Worth Center
04:39PM 31.7569 -99.2628 325° Northwest 397 457 33,600 660 Climbing Fort Worth Center
04:40PM 31.8458 -99.3356 325° Northwest 397 457 34,300 600 Climbing Fort Worth Center
04:41PM 31.9322 -99.4083 324° Northwest 391 450 34,900 600 Climbing Fort Worth Center
04:42PM 32.0208 -99.4789 326° Northwest 391 450 35,500 600 Climbing Fort Worth Center
04:43PM 32.1114 -99.5547 325° Northwest 391 450 36,100 420 Climbing Fort Worth Center
04:44PM 32.2000 -99.6278 325° Northwest 391 450 36,400 300 Climbing Fort Worth Center
04:45PM 32.2906 -99.7039 325° Northwest 391 450 36,800 480 Climbing Fort Worth Center
04:46PM 32.3789 -99.7775 325° Northwest 391 450 37,400 600 Climbing Fort Worth Center
04:47PM 32.4631 -99.8486 325° Northwest 391 450 38,000 300 Climbing Fort Worth Center
04:48PM 32.5536 -99.9125 329° Northwest 385 443 38,000  Level Fort Worth Center
04:50PM 32.7639 -100.0494 331° Northwest 385 443 38,000  Level Fort Worth Center
04:51PM 32.8542 -100.1214 326° Northwest 390 449 38,000  Level Fort Worth Center
04:52PM 32.9358 -100.2031 320° Northwest 390 449 38,000  Level Fort Worth Center
04:53PM 33.0217 -100.2850 321° Northwest 390 449 38,000  Level Fort Worth Center
04:54PM 33.1053 -100.3694 320° Northwest 396 456 38,000  Level Fort Worth Center
04:55PM 33.1931 -100.4494 323° Northwest 396 456 38,000  Level Fort Worth Center
04:56PM 33.2786 -100.5342 320° Northwest 396 456 38,000  Level Fort Worth Center
04:57PM 33.3622 -100.6192 320° Northwest 396 456 38,000  Level Fort Worth Center
04:58PM 33.4433 -100.7069 318° Northwest 396 456 38,000  Level Fort Worth Center
04:59PM 33.5289 -100.7897 321° Northwest 401 461 38,000  Level Fort Worth Center
05:00PM 33.5864 -100.8967 303° West 386 444 38,000  Level Fort Worth Center
05:01PM 33.6417 -101.0036 302° West 386 444 38,000  Level Fort Worth Center
05:02PM 33.7014 -101.1111 304° West 385 443 38,000  Level Fort Worth Center
05:03PM 33.7522 -101.2181 300° West 385 443 38,000  Level Fort Worth Center
05:04PM 33.8075 -101.3281 301° West 385 443 38,000  Level Fort Worth Center
05:05PM 33.8644 -101.4356 303° West 385 443 38,000  Level Fort Worth Center
05:06PM 33.9172 -101.5431 301° West 385 443 38,000  Level Fort Worth Center
05:07PM 33.9742 -101.6561 301° West 390 449 38,000  Level Fort Worth Center
05:08PM 34.0289 -101.7639 302° West 390 449 38,000  Level Fort Worth Center
05:09PM 34.0833 -101.8744 301° West 390 449 38,000  Level Fort Worth Center
05:10PM 34.1419 -101.9831 303° West 397 457 38,000  Level Fort Worth Center
05:11PM 34.1942 -102.0936 300° West 387 445 38,000  Level Fort Worth Center
05:11PM 34.2294 -102.1617 302° West 387 445 38,000  Level Albuquerque Center
05:12PM 34.2853 -102.2728 301° West 386 444 38,000  Level Albuquerque Center
05:14PM 34.3411 -102.3850 301° West 387 445 38,000  Level Albuquerque Center
05:15PM 34.4089 -102.5206 301° West 390 449 38,000  Level Albuquerque Center
05:16PM 34.4639 -102.6331 301° West 389 448 38,000  Level Albuquerque Center
05:17PM 34.5156 -102.7361 301° West 388 447 38,000  Level Albuquerque Center
05:18PM 34.5819 -102.8706 301° West 394 453 38,000  Level Albuquerque Center
05:19PM 34.6386 -102.9858 301° West 395 455 38,000  Level Albuquerque Center
05:20PM 34.6947 -103.1017 301° West 395 455 38,000  Level Albuquerque Center
05:21PM 34.7522 -103.2197 301° West 400 460 38,000  Level Albuquerque Center
05:22PM 34.8097 -103.3369 301° West 401 461 38,000  Level Albuquerque Center
05:23PM 34.8661 -103.4542 300° West 398 458 38,000  Level Albuquerque Center
05:24PM 34.9533 -103.5478 319° Northwest 413 475 38,000  Level Albuquerque Center
05:25PM 35.0681 -103.6428 326° Northwest 423 487 38,000  Level Albuquerque Center
05:26PM 35.1653 -103.7236 326° Northwest 421 484 38,000  Level Albuquerque Center
05:27PM 35.2639 -103.8067 325° Northwest 426 490 38,000  Level Albuquerque Center
05:28PM 35.3611 -103.8889 325° Northwest 425 489 38,000  Level Albuquerque Center
05:29PM 35.4594 -103.9703 326° Northwest 427 491 38,000  Level Albuquerque Center
05:30PM 35.5733 -104.0683 325° Northwest 429 494 38,000  Level Albuquerque Center
05:31PM 35.6722 -104.1522 325° Northwest 429 494 38,000  Level Albuquerque Center
05:32PM 35.7711 -104.2369 325° Northwest 431 496 38,000  Level Albuquerque Center
05:33PM 35.8719 -104.3219 326° Northwest 434 499 38,000  Level Albuquerque Center
05:34PM 35.9703 -104.4083 325° Northwest 432 497 38,000  Level Albuquerque Center
05:35PM 36.0692 -104.4936 325° Northwest 430 495 38,000  Level Albuquerque Center
05:36PM 36.1706 -104.5789 326° Northwest 434 499 38,000  Level Albuquerque Center
05:37PM 36.2867 -104.6778 326° Northwest 431 496 38,000  Level Albuquerque Center
05:38PM 36.3858 -104.7644 325° Northwest 433 498 38,000  Level Albuquerque Center
05:39PM 36.4856 -104.8503 325° Northwest 433 498 38,000  Level Albuquerque Center
05:40PM 36.5858 -104.9397 324° Northwest 437 503 38,000  Level Albuquerque Center
05:41PM 36.6853 -105.0264 325° Northwest 435 501 38,000  Level Albuquerque Center
05:42PM 36.7867 -105.1086 327° Northwest 439 505 38,000  Level Albuquerque Center
05:43PM 36.9017 -105.2022 327° Northwest 440 506 38,000  Level Albuquerque Center
05:44PM 36.9686 -105.2575 327° Northwest 441 507 38,000  Level Denver Center
05:45PM 37.0847 -105.3525 327° Northwest 445 512 38,000  Level Denver Center
05:46PM 37.1842 -105.4344 327° Northwest 445 512 38,000  Level Denver Center
05:47PM 37.2967 -105.5269 327° Northwest 445 512 38,000  Level Denver Center
05:48PM 37.3967 -105.6097 327° Northwest 448 516 38,000  Level Denver Center
05:49PM 37.5128 -105.7058 327° Northwest 448 516 38,000  Level Denver Center
05:50PM 37.6189 -105.7939 327° Northwest 452 520 38,000  Level Denver Center
05:51PM 37.7197 -105.8783 326° Northwest 453 521 38,000  Level Denver Center
05:52PM 37.8367 -105.9775 326° Northwest 453 521 38,000  Level Denver Center
05:53PM 37.9397 -106.0636 327° Northwest 460 529 38,000  Level Denver Center
05:55PM 38.0586 -106.1639 326° Northwest 458 527 38,000  Level Denver Center
05:56PM 38.1606 -106.2511 326° Northwest 460 529 38,000  Level Denver Center
05:57PM 38.2689 -106.3408 327° Northwest 463 533 38,000  Level Denver Center
05:58PM 38.3747 -106.4317 326° Northwest 458 527 38,000  Level Denver Center
05:59PM 38.4811 -106.5242 326° Northwest 461 531 38,000  Level Denver Center
06:00PM 38.5883 -106.6147 327° Northwest 460 529 38,000  Level Denver Center
06:01PM 38.7178 -106.7250 326° Northwest 464 534 38,000  Level Denver Center
06:02PM 38.8039 -106.8006 326° Northwest 466 536 38,000  Level Denver Center
06:03PM 38.9408 -106.9200 326° Northwest 466 536 38,000  Level Denver Center
06:04PM 39.0431 -107.0106 325° Northwest 467 537 38,000  Level Denver Center
06:05PM 39.1625 -107.1156 326° Northwest 464 534 38,000  Level Denver Center
06:06PM 39.2664 -107.2061 326° Northwest 471 542 38,000  Level Denver Center
06:07PM 39.3694 -107.2961 326° Northwest 468 539 38,000  Level Denver Center
06:08PM 39.4881 -107.4042 325° Northwest 468 539 38,000  Level Denver Center
06:09PM 39.5914 -107.4950 326° Northwest 469 540 38,000  Level Denver Center
06:10PM 39.7133 -107.6019 326° Northwest 473 544 38,000  Level Denver Center
06:11PM 39.8292 -107.6594 339° North 477 549 38,000  Level Denver Center
06:12PM 39.9719 -107.6267 10° North 472 543 38,000 -480 Level Denver Center
06:13PM 40.0958 -107.6136 North 471 542 37,100 -960 Descending Denver Center
06:14PM 40.2344 -107.6206 358° North 453 521 36,100 -960 Descending Denver Center
06:15PM 40.3472 -107.6250 358° North 438 504 35,200 -1,200 Descending Denver Center
06:16PM 40.4722 -107.5986 North 421 484 33,700 -1,080 Descending Denver Center
06:17PM 40.5419 -107.5000 47° Northeast 388 447 33,000 -360 Descending Denver Center
06:18PM 40.6089 -107.3775 54° Northeast 370 426 33,000 -300 Level Denver Center
06:19PM 40.6667 -107.2692 55° Northeast 378 435 32,500 -1,080 Descending Denver Center
06:20PM 40.7289 -107.1500 55° Northeast 378 435 30,800 -1,500 Descending Denver Center
06:21PM 40.7856 -107.0364 57° Northeast 373 429 29,400 -1,500 Descending Denver Center
06:22PM 40.8506 -106.9069 56° Northeast 376 433 27,700 -1,200 Descending Denver Center
06:23PM 40.9069 -106.8003 55° Northeast 371 427 27,000 -360 Descending Denver Center
06:24PM 40.9669 -106.6858 55° Northeast 345 397 27,000  Level Denver Center
06:26PM 40.9897 -106.5483 78° East 347 399 27,000  Level Denver Center
06:27PM 41.0011 -106.4033 84° East 356 410 27,000  Level Denver Center
06:28PM 41.0106 -106.2764 84° East 363 418 27,000 -300 Level Denver Center
06:29PM 41.0253 -106.1336 82° East 357 411 26,500 -600 Descending Denver Center
06:30PM 41.0106 -106.0217 100° East 350 403 25,800 -780 Descending Denver Center
06:31PM 40.9167 -105.9894 165° South 354 407 25,000 -780 Descending Denver Center
06:32PM 40.8183 -105.9825 177° South 354 407 24,300 -540 Descending Denver Center
06:33PM 40.7183 -105.9856 181° South 357 411 24,000 -180 Descending Denver Center
06:34PM 40.6114 -105.9869 181° South 378 435 24,000  Level Denver Center
06:35PM 40.4853 -105.9914 182° South 376 433 24,000  Level Denver Center
06:36PM 40.3872 -106.0117 189° South 367 422 24,000  Level Denver Center
06:37PM 40.3519 -106.1292 249° West 359 413 24,000  Level Denver Center
06:38PM 40.3703 -106.3017 278° West 368 423 24,000  Level Denver Center
06:39PM 40.4064 -106.4142 293° West 369 425 24,000  Level Denver Center
06:40PM 40.4878 -106.3739 21° North 321 369 24,000  Level Denver Center
06:41PM 40.4742 -106.2625 99° East 325 374 24,000  Level Denver Center
06:42PM 40.4594 -106.1339 99° East 328 377 24,000  Level Denver Center
06:43PM 40.4472 -106.0161 98° East 325 374 24,000  Level Denver Center
06:44PM 40.4664 -105.9019 78° East 339 390 24,000  Level Denver Center
06:46PM 40.5575 -105.9203 351° North 365 420 24,000  Level Denver Center
06:47PM 40.5822 -106.0556 284° West 383 441 24,000  Level Denver Center
06:48PM 40.5972 -106.2083 277° West 374 430 24,000  Level Denver Center
06:49PM 40.6069 -106.3358 276° West 368 423 24,000  Level Denver Center
06:50PM 40.5167 -106.3942 206° Southwest 351 404 24,000  Level Denver Center
06:51PM 40.4744 -106.2978 120° Southeast 333 383 24,000  Level Denver Center
06:52PM 40.4622 -106.1636 97° East 335 386 24,000  Level Denver Center
06:53PM 40.4508 -106.0525 98° East 331 381 24,000  Level Denver Center
06:54PM 40.4419 -105.9556 97° East 332 382 24,000 -420 Level Denver Center
06:55PM 40.5325 -105.8911 28° Northeast 346 398 23,200 -1,200 Descending Denver Center
06:56PM 40.5989 -105.9625 321° Northwest 348 400 21,600 -1,260 Descending Denver Center
06:57PM 40.6336 -106.1039 288° West 340 391 20,700 -900 Descending Denver Center
06:58PM 40.6578 -106.2125 286° West 316 364 19,800 -840 Descending Denver Center
06:59PM 40.6600 -106.3281 271° West 342 394 19,000 -420 Descending Denver Center
07:00PM 40.5894 -106.3964 216° Southwest 322 371 19,000  Level Denver Center
07:01PM 40.5214 -106.4706 220° Southwest 318 366 19,000  Level Denver Center
07:02PM 40.4422 -106.5242 207° Southwest 327 376 19,000  Level Denver Center
07:03PM 40.3672 -106.4881 160° South 314 361 19,000  Level Denver Center
07:04PM 40.3431 -106.3583 104° East 310 357 19,000  Level Denver Center
07:05PM 40.3219 -106.2419 103° East 325 374 19,000  Level Denver Center
07:06PM 40.3025 -106.1242 102° East 329 379 19,000  Level Denver Center
07:07PM 40.2878 -106.0106 100° East 322 371 19,000  Level Denver Center
07:08PM 40.3058 -105.9111 77° East 285 328 19,000  Level Denver Center
07:09PM 40.3231 -105.8072 78° East 287 330 19,000  Level Denver Center
07:10PM 40.3369 -105.7003 80° East 293 337 19,000 -180 Level Denver Center
07:11PM 40.3519 -105.5928 80° East 297 342 18,700 -780 Descending Denver Center
07:12PM 40.3675 -105.4711 80° East 286 329 17,500 -1,500 Descending Denver Center
07:13PM 40.3711 -105.3636 87° East 281 323 15,700 -1,620 Descending Denver Center
07:14PM 40.3714 -105.2642 90° East 281 323 14,200 -900 Descending Denver Center
07:15PM 40.3733 -105.1744 88° East 255 293 13,900 -600 Descending Denver Center
07:16PM 40.3650 -105.0919 98° East 222 255 13,000 -480 Descending Denver Center
07:17PM 40.3553 -105.0219 100° East 202 232 13,000  Level Denver Center
07:19PM 40.3417 -104.9392 102° East 211 243 13,000  Level Denver Center
07:20PM 40.3317 -104.8594 99° East 220 253 13,000 -240 Level Denver Center
07:21PM 40.3142 -104.7872 108° East 211 243 12,600 -840 Descending Denver Center
07:22PM 40.2761 -104.7233 128° Southeast 212 244 11,400 -1,200 Descending Denver Center
07:23PM 40.2194 -104.6967 160° South 218 251 10,200 -720 Descending Denver Center
07:24PM 40.1558 -104.6836 171° South 217 250 10,000 -540 Descending Denver Center
07:25PM 40.0931 -104.6844 181° South 223 257 9,200 -1,020 Descending Denver Center
07:26PM 40.0339 -104.6850 180° South 216 249 8,000 -1,200 Descending Denver Center